Sky Ever — DSQX9 — position and weather

sailwx.info

Track history (hours):
 
Tides and Currents Weather Stations Pressure Air Temp Water Temp Dewpoint Dewpoint Depression Visibility Wind Speed Wind Dir Waves Ship Positions

Sky Ever

Last reported at 2014-Oct-17 08:32 UTC. Time now 2014-Oct-20 11:21 UTC.
Position N 34°36' E 134°55'.

Length 76 m; draft 3.7 m.

Type: Cargo ship. MMSI: 441751000.

Date/timePositionNaut miles runAvg speedWind from/ knotsBaromVisibWave heightAir tempDewpointWater temp
2014-Oct-17 08:32N 34°36' E 134°55'1010.0
2014-Oct-17 07:33N 34°36' E 135°06'9 9.3
2014-Oct-17 06:33N 34°39' E 135°17'3 2.8
2014-Oct-17 05:30N 34°41' E 135°17'0 0.0
2014-Oct-17 04:24N 34°41' E 135°17'0 0.0
2014-Oct-17 03:30N 34°41' E 135°17'0 0.0
2014-Oct-17 02:29N 34°41' E 135°17'0 0.0
2014-Oct-17 01:29N 34°41' E 135°17'0 0.0
2014-Oct-17 00:23N 34°41' E 135°17'0 0.0
2014-Oct-16 23:29N 34°41' E 135°17'0 0.0
2014-Oct-16 22:29N 34°41' E 135°17'3 2.5
2014-Oct-16 21:12N 34°38' E 135°17'0 0.0
2014-Oct-16 20:30N 34°38' E 135°17'0 0.0
2014-Oct-16 19:30N 34°38' E 135°17'0 0.0
2014-Oct-16 18:30N 34°38' E 135°17'0 0.0
2014-Oct-16 17:24N 34°38' E 135°17'0 0.0
2014-Oct-16 16:24N 34°38' E 135°17'0 0.0
2014-Oct-16 15:30N 34°38' E 135°17'0 0.0
2014-Oct-16 14:30N 34°38' E 135°17'0 0.0
2014-Oct-16 13:30N 34°38' E 135°17'0 0.0
2014-Oct-16 12:30N 34°38' E 135°17'0 0.0
2014-Oct-16 11:30N 34°38' E 135°17'0 0.0
2014-Oct-16 10:24N 34°38' E 135°17'0 0.0
2014-Oct-16 09:30N 34°38' E 135°17'0 0.0
2014-Oct-16 08:30N 34°38' E 135°17'0 0.0
2014-Oct-16 07:24N 34°38' E 135°17'0 0.0
2014-Oct-16 06:33N 34°38' E 135°17'0 0.0
2014-Oct-16 05:27N 34°38' E 135°17'0 0.0
2014-Oct-16 04:33N 34°38' E 135°17'7 6.9
2014-Oct-16 03:32N 34°33' E 135°22'2 0.3
2014-Oct-15 22:20N 34°31' E 135°23'2 2.1
2014-Oct-15 21:30N 34°32' E 135°22'0 0.1
2014-Oct-15 20:30N 34°32' E 135°22'0 0.0
2014-Oct-15 19:30N 34°32' E 135°22'0 0.0
2014-Oct-15 18:30N 34°32' E 135°22'0 0.0
2014-Oct-15 17:30N 34°32' E 135°22'0 0.0
2014-Oct-15 16:30N 34°32' E 135°22'0 0.0
2014-Oct-15 15:30N 34°32' E 135°22'0 0.0
2014-Oct-15 14:30N 34°32' E 135°22'0 0.0
2014-Oct-15 13:30N 34°32' E 135°22'0 0.0
2014-Oct-15 12:30N 34°32' E 135°22'0 0.1
2014-Oct-15 11:30N 34°32' E 135°22'0 0.0
2014-Oct-15 10:30N 34°32' E 135°22'0 0.0
2014-Oct-15 09:30N 34°32' E 135°22'0 0.0
2014-Oct-15 08:29N 34°32' E 135°22'0 0.0
2014-Oct-15 07:29N 34°32' E 135°22'0 0.0
2014-Oct-15 06:29N 34°32' E 135°22'0 0.0
2014-Oct-15 05:29N 34°32' E 135°22'0 0.0
2014-Oct-15 04:29N 34°32' E 135°22'0 0.0
2014-Oct-15 03:29N 34°32' E 135°22'0 0.0
2014-Oct-15 02:29N 34°32' E 135°22'0 0.0
2014-Oct-15 01:17N 34°32' E 135°22'0 0.0
2014-Oct-15 00:29N 34°32' E 135°22'0 0.0
2014-Oct-14 23:29N 34°32' E 135°22'0 0.0
2014-Oct-14 22:17N 34°32' E 135°22'0 0.0
2014-Oct-14 21:11N 34°32' E 135°22'0 0.0
2014-Oct-14 20:29N 34°32' E 135°22'0 0.0
2014-Oct-14 19:17N 34°32' E 135°22'0 0.0
2014-Oct-14 18:23N 34°32' E 135°22'0 0.0
2014-Oct-14 17:29N 34°32' E 135°22'0 0.0
2014-Oct-14 16:29N 34°32' E 135°22'0 0.0
2014-Oct-14 15:29N 34°32' E 135°22'0 0.0
2014-Oct-14 14:29N 34°32' E 135°22'0 0.0
2014-Oct-14 13:29N 34°32' E 135°22'0 0.0
2014-Oct-14 12:29N 34°32' E 135°22'0 0.0
2014-Oct-14 11:29N 34°32' E 135°22'0 0.0
2014-Oct-14 10:29N 34°32' E 135°22'0 0.0
2014-Oct-14 09:23N 34°32' E 135°22'0 0.0
2014-Oct-14 08:23N 34°32' E 135°22'0 0.0
2014-Oct-14 07:29N 34°32' E 135°22'0 0.0
2014-Oct-14 06:29N 34°32' E 135°22'0 0.0
2014-Oct-14 05:29N 34°32' E 135°22'0 0.0
2014-Oct-14 04:29N 34°32' E 135°22'0 0.0
2014-Oct-14 03:30N 34°32' E 135°22'3 2.7
2014-Oct-14 02:15N 34°32' E 135°18'0 0.0
2014-Oct-14 01:33N 34°32' E 135°18'0 0.0
2014-Oct-14 00:33N 34°32' E 135°18'0 0.0
2014-Oct-13 23:33N 34°32' E 135°18'0 0.0
2014-Oct-13 22:33N 34°32' E 135°18'0 0.0
2014-Oct-13 21:33N 34°32' E 135°18'0 0.0
2014-Oct-13 20:33N 34°32' E 135°18'0 0.0
2014-Oct-13 19:33N 34°32' E 135°18'0 0.0
2014-Oct-13 18:33N 34°32' E 135°18'0 0.0
2014-Oct-13 17:27N 34°32' E 135°18'0 0.1
2014-Oct-13 16:33N 34°32' E 135°18'0 0.0
2014-Oct-13 15:27N 34°32' E 135°18'0 0.0
2014-Oct-13 14:33N 34°32' E 135°18'0 0.0
2014-Oct-13 13:33N 34°32' E 135°18'0 0.0
2014-Oct-13 12:33N 34°32' E 135°18'0 0.1
2014-Oct-13 11:33N 34°32' E 135°18'0 0.0
2014-Oct-13 10:32N 34°32' E 135°18'0 0.0
2014-Oct-13 09:32N 34°32' E 135°18'0 0.0
2014-Oct-13 08:32N 34°32' E 135°18'0 0.0
2014-Oct-13 07:20N 34°32' E 135°18'0 0.0
2014-Oct-13 06:14N 34°32' E 135°18'0 0.0
2014-Oct-13 05:32N 34°32' E 135°18'0 0.0
2014-Oct-13 04:32N 34°32' E 135°18'0 0.0
2014-Oct-13 03:26N 34°32' E 135°18'0 0.0
2014-Oct-13 02:32N 34°32' E 135°18'0 0.0
2014-Oct-13 01:32N 34°32' E 135°18'0 0.0
2014-Oct-13 00:26N 34°32' E 135°18'0 0.0
2014-Oct-12 23:26N 34°32' E 135°18'0 0.0
2014-Oct-12 22:08N 34°32' E 135°18'0 0.0
2014-Oct-12 21:26N 34°32' E 135°18'0 0.0
2014-Oct-12 20:32N 34°32' E 135°18'0 0.0
2014-Oct-12 19:32N 34°32' E 135°18'0 0.0
2014-Oct-12 18:32N 34°32' E 135°18'0 0.0
2014-Oct-12 17:32N 34°32' E 135°18'0 0.0
2014-Oct-12 16:32N 34°32' E 135°18'0 0.0
2014-Oct-12 15:32N 34°32' E 135°18'0 0.0
2014-Oct-12 14:26N 34°32' E 135°18'0 0.0
2014-Oct-12 13:26N 34°32' E 135°18'0 0.0
2014-Oct-12 12:26N 34°32' E 135°18'0 0.0
2014-Oct-12 11:32N 34°32' E 135°18'0 0.0
2014-Oct-12 10:32N 34°32' E 135°18'0 0.0
2014-Oct-12 09:32N 34°32' E 135°18'0 0.0
2014-Oct-12 08:32N 34°32' E 135°18'0 0.0
2014-Oct-12 07:32N 34°32' E 135°18'0 0.0
2014-Oct-12 06:32N 34°32' E 135°18'0 0.0
2014-Oct-12 05:32N 34°32' E 135°18'0 0.0
2014-Oct-12 04:26N 34°32' E 135°18'0 0.0
2014-Oct-12 03:32N 34°32' E 135°18'0 0.0
2014-Oct-12 02:32N 34°32' E 135°18'0 0.0
2014-Oct-12 01:32N 34°32' E 135°18'0 0.0
2014-Oct-12 00:26N 34°32' E 135°18'0 0.0
2014-Oct-11 23:26N 34°32' E 135°18'0 0.0
2014-Oct-11 22:14N 34°32' E 135°18'0 0.0
2014-Oct-11 21:32N 34°32' E 135°18'0 0.0
2014-Oct-11 20:32N 34°32' E 135°18'0 0.0
2014-Oct-11 19:32N 34°32' E 135°18'0 0.0
2014-Oct-11 18:32N 34°32' E 135°18'1 0.9
2014-Oct-11 17:33N 34°32' E 135°17'8 8.0
2014-Oct-11 16:33N 34°34' E 135°07'9 8.7
2014-Oct-11 15:31N 34°36' E 134°56'  
Track history (hours):
 
Tides and Currents Weather Stations Pressure Air Temp Water Temp Dewpoint Dewpoint Depression Visibility Wind Speed Wind Dir Waves Ship Positions

Sky Ever

Last reported at 2014-Oct-17 08:32 UTC. Time now 2014-Oct-20 11:21 UTC.
Position N 34°36' E 134°55'.

Length 76 m; draft 3.7 m.

Type: Cargo ship. MMSI: 441751000.

Date/timePositionNaut miles runAvg speedWind from/ knotsBaromVisibWave heightAir tempDewpointWater temp
2014-Oct-17 08:32N 34°36' E 134°55'1010.0
2014-Oct-17 07:33N 34°36' E 135°06'9 9.3
2014-Oct-17 06:33N 34°39' E 135°17'3 2.8
2014-Oct-17 05:30N 34°41' E 135°17'0 0.0
2014-Oct-17 04:24N 34°41' E 135°17'0 0.0
2014-Oct-17 03:30N 34°41' E 135°17'0 0.0
2014-Oct-17 02:29N 34°41' E 135°17'0 0.0
2014-Oct-17 01:29N 34°41' E 135°17'0 0.0
2014-Oct-17 00:23N 34°41' E 135°17'0 0.0
2014-Oct-16 23:29N 34°41' E 135°17'0 0.0
2014-Oct-16 22:29N 34°41' E 135°17'3 2.5
2014-Oct-16 21:12N 34°38' E 135°17'0 0.0
2014-Oct-16 20:30N 34°38' E 135°17'0 0.0
2014-Oct-16 19:30N 34°38' E 135°17'0 0.0
2014-Oct-16 18:30N 34°38' E 135°17'0 0.0
2014-Oct-16 17:24N 34°38' E 135°17'0 0.0
2014-Oct-16 16:24N 34°38' E 135°17'0 0.0
2014-Oct-16 15:30N 34°38' E 135°17'0 0.0
2014-Oct-16 14:30N 34°38' E 135°17'0 0.0
2014-Oct-16 13:30N 34°38' E 135°17'0 0.0
2014-Oct-16 12:30N 34°38' E 135°17'0 0.0
2014-Oct-16 11:30N 34°38' E 135°17'0 0.0
2014-Oct-16 10:24N 34°38' E 135°17'0 0.0
2014-Oct-16 09:30N 34°38' E 135°17'0 0.0
2014-Oct-16 08:30N 34°38' E 135°17'0 0.0
2014-Oct-16 07:24N 34°38' E 135°17'0 0.0
2014-Oct-16 06:33N 34°38' E 135°17'0 0.0
2014-Oct-16 05:27N 34°38' E 135°17'0 0.0
2014-Oct-16 04:33N 34°38' E 135°17'7 6.9
2014-Oct-16 03:32N 34°33' E 135°22'2 0.3
2014-Oct-15 22:20N 34°31' E 135°23'2 2.1
2014-Oct-15 21:30N 34°32' E 135°22'0 0.1
2014-Oct-15 20:30N 34°32' E 135°22'0 0.0
2014-Oct-15 19:30N 34°32' E 135°22'0 0.0
2014-Oct-15 18:30N 34°32' E 135°22'0 0.0
2014-Oct-15 17:30N 34°32' E 135°22'0 0.0
2014-Oct-15 16:30N 34°32' E 135°22'0 0.0
2014-Oct-15 15:30N 34°32' E 135°22'0 0.0
2014-Oct-15 14:30N 34°32' E 135°22'0 0.0
2014-Oct-15 13:30N 34°32' E 135°22'0 0.0
2014-Oct-15 12:30N 34°32' E 135°22'0 0.1
2014-Oct-15 11:30N 34°32' E 135°22'0 0.0
2014-Oct-15 10:30N 34°32' E 135°22'0 0.0
2014-Oct-15 09:30N 34°32' E 135°22'0 0.0
2014-Oct-15 08:29N 34°32' E 135°22'0 0.0
2014-Oct-15 07:29N 34°32' E 135°22'0 0.0
2014-Oct-15 06:29N 34°32' E 135°22'0 0.0
2014-Oct-15 05:29N 34°32' E 135°22'0 0.0
2014-Oct-15 04:29N 34°32' E 135°22'0 0.0
2014-Oct-15 03:29N 34°32' E 135°22'0 0.0
2014-Oct-15 02:29N 34°32' E 135°22'0 0.0
2014-Oct-15 01:17N 34°32' E 135°22'0 0.0
2014-Oct-15 00:29N 34°32' E 135°22'0 0.0
2014-Oct-14 23:29N 34°32' E 135°22'0 0.0
2014-Oct-14 22:17N 34°32' E 135°22'0 0.0
2014-Oct-14 21:11N 34°32' E 135°22'0 0.0
2014-Oct-14 20:29N 34°32' E 135°22'0 0.0
2014-Oct-14 19:17N 34°32' E 135°22'0 0.0
2014-Oct-14 18:23N 34°32' E 135°22'0 0.0
2014-Oct-14 17:29N 34°32' E 135°22'0 0.0
2014-Oct-14 16:29N 34°32' E 135°22'0 0.0
2014-Oct-14 15:29N 34°32' E 135°22'0 0.0
2014-Oct-14 14:29N 34°32' E 135°22'0 0.0
2014-Oct-14 13:29N 34°32' E 135°22'0 0.0
2014-Oct-14 12:29N 34°32' E 135°22'0 0.0
2014-Oct-14 11:29N 34°32' E 135°22'0 0.0
2014-Oct-14 10:29N 34°32' E 135°22'0 0.0
2014-Oct-14 09:23N 34°32' E 135°22'0 0.0
2014-Oct-14 08:23N 34°32' E 135°22'0 0.0
2014-Oct-14 07:29N 34°32' E 135°22'0 0.0
2014-Oct-14 06:29N 34°32' E 135°22'0 0.0
2014-Oct-14 05:29N 34°32' E 135°22'0 0.0
2014-Oct-14 04:29N 34°32' E 135°22'0 0.0
2014-Oct-14 03:30N 34°32' E 135°22'3 2.7
2014-Oct-14 02:15N 34°32' E 135°18'0 0.0
2014-Oct-14 01:33N 34°32' E 135°18'0 0.0
2014-Oct-14 00:33N 34°32' E 135°18'0 0.0
2014-Oct-13 23:33N 34°32' E 135°18'0 0.0
2014-Oct-13 22:33N 34°32' E 135°18'0 0.0
2014-Oct-13 21:33N 34°32' E 135°18'0 0.0
2014-Oct-13 20:33N 34°32' E 135°18'0 0.0
2014-Oct-13 19:33N 34°32' E 135°18'0 0.0
2014-Oct-13 18:33N 34°32' E 135°18'0 0.0
2014-Oct-13 17:27N 34°32' E 135°18'0 0.1
2014-Oct-13 16:33N 34°32' E 135°18'0 0.0
2014-Oct-13 15:27N 34°32' E 135°18'0 0.0
2014-Oct-13 14:33N 34°32' E 135°18'0 0.0
2014-Oct-13 13:33N 34°32' E 135°18'0 0.0
2014-Oct-13 12:33N 34°32' E 135°18'0 0.1
2014-Oct-13 11:33N 34°32' E 135°18'0 0.0
2014-Oct-13 10:32N 34°32' E 135°18'0 0.0
2014-Oct-13 09:32N 34°32' E 135°18'0 0.0
2014-Oct-13 08:32N 34°32' E 135°18'0 0.0
2014-Oct-13 07:20N 34°32' E 135°18'0 0.0
2014-Oct-13 06:14N 34°32' E 135°18'0 0.0
2014-Oct-13 05:32N 34°32' E 135°18'0 0.0
2014-Oct-13 04:32N 34°32' E 135°18'0 0.0
2014-Oct-13 03:26N 34°32' E 135°18'0 0.0
2014-Oct-13 02:32N 34°32' E 135°18'0 0.0
2014-Oct-13 01:32N 34°32' E 135°18'0 0.0
2014-Oct-13 00:26N 34°32' E 135°18'0 0.0
2014-Oct-12 23:26N 34°32' E 135°18'0 0.0
2014-Oct-12 22:08N 34°32' E 135°18'0 0.0
2014-Oct-12 21:26N 34°32' E 135°18'0 0.0
2014-Oct-12 20:32N 34°32' E 135°18'0 0.0
2014-Oct-12 19:32N 34°32' E 135°18'0 0.0
2014-Oct-12 18:32N 34°32' E 135°18'0 0.0
2014-Oct-12 17:32N 34°32' E 135°18'0 0.0
2014-Oct-12 16:32N 34°32' E 135°18'0 0.0
2014-Oct-12 15:32N 34°32' E 135°18'0 0.0
2014-Oct-12 14:26N 34°32' E 135°18'0 0.0
2014-Oct-12 13:26N 34°32' E 135°18'0 0.0
2014-Oct-12 12:26N 34°32' E 135°18'0 0.0
2014-Oct-12 11:32N 34°32' E 135°18'0 0.0
2014-Oct-12 10:32N 34°32' E 135°18'0 0.0
2014-Oct-12 09:32N 34°32' E 135°18'0 0.0
2014-Oct-12 08:32N 34°32' E 135°18'0 0.0
2014-Oct-12 07:32N 34°32' E 135°18'0 0.0
2014-Oct-12 06:32N 34°32' E 135°18'0 0.0
2014-Oct-12 05:32N 34°32' E 135°18'0 0.0
2014-Oct-12 04:26N 34°32' E 135°18'0 0.0
2014-Oct-12 03:32N 34°32' E 135°18'0 0.0
2014-Oct-12 02:32N 34°32' E 135°18'0 0.0
2014-Oct-12 01:32N 34°32' E 135°18'0 0.0
2014-Oct-12 00:26N 34°32' E 135°18'0 0.0
2014-Oct-11 23:26N 34°32' E 135°18'0 0.0
2014-Oct-11 22:14N 34°32' E 135°18'0 0.0
2014-Oct-11 21:32N 34°32' E 135°18'0 0.0
2014-Oct-11 20:32N 34°32' E 135°18'0 0.0
2014-Oct-11 19:32N 34°32' E 135°18'0 0.0
2014-Oct-11 18:32N 34°32' E 135°18'1 0.9
2014-Oct-11 17:33N 34°32' E 135°17'8 8.0
2014-Oct-11 16:33N 34°34' E 135°07'9 8.7
2014-Oct-11 15:31N 34°36' E 134°56'  

Dump ship's entire track history